sensor_id;sensor_type;location;lat;lon;timestamp;pressure;altitude;pressure_sealevel;temperature;humidity
51524;BME280;37610;51.790;21.590;2022-10-31T00:00:29;100435.16;;;10.85;70.97
51524;BME280;37610;51.790;21.590;2022-10-31T00:04:51;100436.04;;;10.83;70.84
51524;BME280;37610;51.790;21.590;2022-10-31T00:08:56;100437.23;;;10.83;71.00
51524;BME280;37610;51.790;21.590;2022-10-31T00:12:58;100435.51;;;10.81;71.05
51524;BME280;37610;51.790;21.590;2022-10-31T00:16:59;100437.55;;;10.77;70.92
51524;BME280;37610;51.790;21.590;2022-10-31T00:21:01;100439.98;;;10.74;70.89
51524;BME280;37610;51.790;21.590;2022-10-31T00:25:04;100444.27;;;10.69;70.84
51524;BME280;37610;51.790;21.590;2022-10-31T00:29:05;100446.35;;;10.60;70.90
51524;BME280;37610;51.790;21.590;2022-10-31T00:33:07;100445.36;;;10.55;71.02
51524;BME280;37610;51.790;21.590;2022-10-31T00:37:08;100446.20;;;10.50;71.02
51524;BME280;37610;51.790;21.590;2022-10-31T00:41:11;100444.70;;;10.45;71.27
51524;BME280;37610;51.790;21.590;2022-10-31T00:45:13;100441.42;;;10.41;71.05
51524;BME280;37610;51.790;21.590;2022-10-31T00:49:14;100442.80;;;10.37;70.88
51524;BME280;37610;51.790;21.590;2022-10-31T00:53:16;100446.83;;;10.34;70.89
51524;BME280;37610;51.790;21.590;2022-10-31T00:57:17;100450.60;;;10.34;71.03
51524;BME280;37610;51.790;21.590;2022-10-31T01:01:18;100451.44;;;10.31;71.11
51524;BME280;37610;51.790;21.590;2022-10-31T01:05:20;100450.38;;;10.27;71.09
51524;BME280;37610;51.790;21.590;2022-10-31T01:09:21;100454.25;;;10.24;70.74
51524;BME280;37610;51.790;21.590;2022-10-31T01:13:23;100455.40;;;10.22;70.72
51524;BME280;37610;51.790;21.590;2022-10-31T01:17:24;100457.22;;;10.20;70.61
51524;BME280;37610;51.790;21.590;2022-10-31T01:21:28;100460.23;;;10.19;70.59
51524;BME280;37610;51.790;21.590;2022-10-31T01:25:30;100459.52;;;10.18;70.56
51524;BME280;37610;51.790;21.590;2022-10-31T01:29:31;100460.80;;;10.15;70.58
51524;BME280;37610;51.790;21.590;2022-10-31T01:33:33;100462.38;;;10.15;70.82
51524;BME280;37610;51.790;21.590;2022-10-31T01:37:34;100465.43;;;10.14;70.81
51524;BME280;37610;51.790;21.590;2022-10-31T01:41:38;100461.83;;;10.12;70.83
51524;BME280;37610;51.790;21.590;2022-10-31T01:45:41;100461.23;;;10.10;70.87
51524;BME280;37610;51.790;21.590;2022-10-31T01:49:49;100460.73;;;10.07;70.86
51524;BME280;37610;51.790;21.590;2022-10-31T01:53:55;100458.17;;;10.04;70.90
51524;BME280;37610;51.790;21.590;2022-10-31T01:58:03;100462.83;;;10.02;70.77
51524;BME280;37610;51.790;21.590;2022-10-31T02:02:07;100463.60;;;10.00;70.90
51524;BME280;37610;51.790;21.590;2022-10-31T02:06:18;100469.25;;;10.00;70.95
51524;BME280;37610;51.790;21.590;2022-10-31T02:10:23;100467.94;;;9.99;70.85
51524;BME280;37610;51.790;21.590;2022-10-31T02:14:26;100471.41;;;9.95;70.66
51524;BME280;37610;51.790;21.590;2022-10-31T02:18:30;100471.59;;;9.92;70.48
51524;BME280;37610;51.790;21.590;2022-10-31T02:23:14;100471.36;;;9.92;70.40
51524;BME280;37610;51.790;21.590;2022-10-31T02:35:58;100486.52;;;9.82;70.51
51524;BME280;37610;51.790;21.590;2022-10-31T02:40:15;100484.80;;;9.79;70.33
51524;BME280;37610;51.790;21.590;2022-10-31T02:48:40;100479.20;;;9.70;70.40
51524;BME280;37610;51.790;21.590;2022-10-31T02:52:44;100478.05;;;9.66;70.38
51524;BME280;37610;51.790;21.590;2022-10-31T02:56:46;100476.59;;;9.63;70.32
51524;BME280;37610;51.790;21.590;2022-10-31T03:09:41;100476.59;;;9.55;70.25
51524;BME280;37610;51.790;21.590;2022-10-31T03:18:03;100476.96;;;9.49;70.50
51524;BME280;37610;51.790;21.590;2022-10-31T03:22:19;100480.48;;;9.49;70.41
51524;BME280;37610;51.790;21.590;2022-10-31T03:26:23;100483.77;;;9.50;70.27
51524;BME280;37610;51.790;21.590;2022-10-31T03:30:26;100483.25;;;9.49;70.40
51524;BME280;37610;51.790;21.590;2022-10-31T03:34:29;100480.65;;;9.49;70.47
51524;BME280;37610;51.790;21.590;2022-10-31T03:38:34;100484.36;;;9.47;70.54
51524;BME280;37610;51.790;21.590;2022-10-31T03:42:42;100484.72;;;9.46;70.46
51524;BME280;37610;51.790;21.590;2022-10-31T03:46:45;100486.13;;;9.44;70.39
51524;BME280;37610;51.790;21.590;2022-10-31T03:54:55;100491.48;;;9.38;70.34
51524;BME280;37610;51.790;21.590;2022-10-31T03:59:05;100496.40;;;9.34;70.33
51524;BME280;37610;51.790;21.590;2022-10-31T04:03:21;100496.61;;;9.30;70.25
51524;BME280;37610;51.790;21.590;2022-10-31T04:07:28;100500.48;;;9.27;70.34
51524;BME280;37610;51.790;21.590;2022-10-31T04:11:35;100508.85;;;9.25;70.34
51524;BME280;37610;51.790;21.590;2022-10-31T04:15:38;100513.27;;;9.25;70.39
51524;BME280;37610;51.790;21.590;2022-10-31T04:19:40;100514.60;;;9.23;70.34
51524;BME280;37610;51.790;21.590;2022-10-31T04:23:41;100515.98;;;9.24;70.50
51524;BME280;37610;51.790;21.590;2022-10-31T04:27:43;100515.95;;;9.24;70.54
51524;BME280;37610;51.790;21.590;2022-10-31T04:31:44;100513.44;;;9.24;70.42
51524;BME280;37610;51.790;21.590;2022-10-31T04:35:46;100522.71;;;9.25;70.41
51524;BME280;37610;51.790;21.590;2022-10-31T04:39:48;100523.23;;;9.23;70.17
51524;BME280;37610;51.790;21.590;2022-10-31T04:43:49;100524.12;;;9.22;70.28
51524;BME280;37610;51.790;21.590;2022-10-31T04:47:51;100524.52;;;9.22;70.29
51524;BME280;37610;51.790;21.590;2022-10-31T04:51:52;100524.85;;;9.22;70.37
51524;BME280;37610;51.790;21.590;2022-10-31T04:55:54;100521.14;;;9.19;70.55
51524;BME280;37610;51.790;21.590;2022-10-31T04:59:55;100522.50;;;9.18;70.50
51524;BME280;37610;51.790;21.590;2022-10-31T05:03:57;100521.45;;;9.14;70.54
51524;BME280;37610;51.790;21.590;2022-10-31T05:07:58;100523.54;;;9.11;70.62
51524;BME280;37610;51.790;21.590;2022-10-31T05:12:00;100530.28;;;9.09;70.55
51524;BME280;37610;51.790;21.590;2022-10-31T05:16:01;100534.57;;;9.08;70.58
51524;BME280;37610;51.790;21.590;2022-10-31T05:20:04;100536.78;;;9.07;70.50
51524;BME280;37610;51.790;21.590;2022-10-31T05:24:06;100545.08;;;9.06;70.47
51524;BME280;37610;51.790;21.590;2022-10-31T05:28:08;100543.45;;;9.05;70.47
51524;BME280;37610;51.790;21.590;2022-10-31T05:32:09;100548.23;;;9.02;70.57
51524;BME280;37610;51.790;21.590;2022-10-31T05:36:11;100553.16;;;8.99;70.45
51524;BME280;37610;51.790;21.590;2022-10-31T05:40:14;100553.95;;;8.99;70.35
51524;BME280;37610;51.790;21.590;2022-10-31T05:44:15;100555.89;;;8.98;70.14
51524;BME280;37610;51.790;21.590;2022-10-31T05:48:17;100560.83;;;8.95;70.42
51524;BME280;37610;51.790;21.590;2022-10-31T05:52:19;100565.92;;;8.95;70.53
51524;BME280;37610;51.790;21.590;2022-10-31T05:56:21;100565.09;;;8.95;70.73
51524;BME280;37610;51.790;21.590;2022-10-31T06:00:24;100566.14;;;8.95;70.77
51524;BME280;37610;51.790;21.590;2022-10-31T06:04:26;100567.23;;;8.95;70.87
51524;BME280;37610;51.790;21.590;2022-10-31T06:08:27;100560.70;;;8.98;71.05
51524;BME280;37610;51.790;21.590;2022-10-31T06:12:29;100561.90;;;9.01;71.16
51524;BME280;37610;51.790;21.590;2022-10-31T06:16:31;100570.95;;;9.03;71.26
51524;BME280;37610;51.790;21.590;2022-10-31T06:20:33;100570.64;;;9.07;71.32
51524;BME280;37610;51.790;21.590;2022-10-31T06:24:34;100570.27;;;9.15;71.21
51524;BME280;37610;51.790;21.590;2022-10-31T06:28:36;100571.66;;;9.21;71.36
51524;BME280;37610;51.790;21.590;2022-10-31T06:32:37;100574.45;;;9.27;71.29
51524;BME280;37610;51.790;21.590;2022-10-31T06:36:39;100571.73;;;9.29;71.46
51524;BME280;37610;51.790;21.590;2022-10-31T06:40:40;100578.08;;;9.33;71.46
51524;BME280;37610;51.790;21.590;2022-10-31T06:44:41;100582.33;;;9.36;71.45
51524;BME280;37610;51.790;21.590;2022-10-31T06:48:43;100579.09;;;9.41;71.72
51524;BME280;37610;51.790;21.590;2022-10-31T06:52:50;100580.35;;;9.47;71.81
51524;BME280;37610;51.790;21.590;2022-10-31T06:56:52;100579.23;;;9.52;71.97
51524;BME280;37610;51.790;21.590;2022-10-31T07:00:53;100582.73;;;9.60;72.39
51524;BME280;37610;51.790;21.590;2022-10-31T07:04:55;100579.68;;;9.69;72.44
51524;BME280;37610;51.790;21.590;2022-10-31T07:08:56;100579.31;;;9.81;72.76
51524;BME280;37610;51.790;21.590;2022-10-31T07:13:00;100577.42;;;9.89;73.23
51524;BME280;37610;51.790;21.590;2022-10-31T07:17:02;100585.77;;;10.00;73.65
51524;BME280;37610;51.790;21.590;2022-10-31T07:21:04;100583.84;;;10.13;73.84
51524;BME280;37610;51.790;21.590;2022-10-31T07:25:06;100591.05;;;10.24;74.15
51524;BME280;37610;51.790;21.590;2022-10-31T07:29:07;100595.27;;;10.36;74.49
51524;BME280;37610;51.790;21.590;2022-10-31T07:33:09;100599.46;;;10.48;74.63
51524;BME280;37610;51.790;21.590;2022-10-31T07:37:10;100594.35;;;10.65;75.17
51524;BME280;37610;51.790;21.590;2022-10-31T07:41:11;100594.74;;;10.81;75.31
51524;BME280;37610;51.790;21.590;2022-10-31T07:45:16;100595.30;;;10.95;75.67
51524;BME280;37610;51.790;21.590;2022-10-31T07:49:18;100594.70;;;11.11;75.87
51524;BME280;37610;51.790;21.590;2022-10-31T07:53:19;100598.00;;;11.23;75.72
51524;BME280;37610;51.790;21.590;2022-10-31T07:57:21;100594.41;;;11.34;75.91
51524;BME280;37610;51.790;21.590;2022-10-31T08:01:22;100599.17;;;11.46;76.07
51524;BME280;37610;51.790;21.590;2022-10-31T08:05:23;100598.52;;;11.57;76.37
51524;BME280;37610;51.790;21.590;2022-10-31T08:09:25;100597.92;;;11.68;76.31
51524;BME280;37610;51.790;21.590;2022-10-31T08:13:26;100593.90;;;11.76;76.30
51524;BME280;37610;51.790;21.590;2022-10-31T08:17:28;100595.53;;;11.85;76.21
51524;BME280;37610;51.790;21.590;2022-10-31T08:21:30;100592.73;;;11.94;76.29
51524;BME280;37610;51.790;21.590;2022-10-31T08:25:33;100598.59;;;12.01;76.18
51524;BME280;37610;51.790;21.590;2022-10-31T08:29:35;100600.95;;;12.09;76.29
51524;BME280;37610;51.790;21.590;2022-10-31T08:33:36;100594.28;;;12.17;76.38
51524;BME280;37610;51.790;21.590;2022-10-31T08:37:38;100595.85;;;12.26;76.35
51524;BME280;37610;51.790;21.590;2022-10-31T08:41:39;100589.02;;;12.35;76.19
51524;BME280;37610;51.790;21.590;2022-10-31T08:45:42;100591.27;;;12.43;76.23
51524;BME280;37610;51.790;21.590;2022-10-31T08:49:43;100591.08;;;12.52;76.24
51524;BME280;37610;51.790;21.590;2022-10-31T08:53:45;100596.78;;;12.61;76.27
51524;BME280;37610;51.790;21.590;2022-10-31T08:57:46;100602.21;;;12.68;76.02
51524;BME280;37610;51.790;21.590;2022-10-31T09:01:48;100603.81;;;12.74;75.89
51524;BME280;37610;51.790;21.590;2022-10-31T09:05:50;100605.36;;;12.83;75.77
51524;BME280;37610;51.790;21.590;2022-10-31T09:09:52;100610.86;;;12.91;75.82
51524;BME280;37610;51.790;21.590;2022-10-31T09:13:53;100614.05;;;12.99;75.83
51524;BME280;37610;51.790;21.590;2022-10-31T09:17:55;100617.96;;;13.06;75.84
51524;BME280;37610;51.790;21.590;2022-10-31T09:21:56;100623.38;;;13.13;75.79
51524;BME280;37610;51.790;21.590;2022-10-31T09:25:59;100628.40;;;13.20;75.65
51524;BME280;37610;51.790;21.590;2022-10-31T09:30:02;100629.83;;;13.26;75.52
51524;BME280;37610;51.790;21.590;2022-10-31T09:34:04;100629.48;;;13.34;75.52
51524;BME280;37610;51.790;21.590;2022-10-31T09:38:17;100630.30;;;13.41;75.43
51524;BME280;37610;51.790;21.590;2022-10-31T09:42:45;100630.86;;;13.48;75.36
51524;BME280;37610;51.790;21.590;2022-10-31T09:47:15;100628.15;;;13.56;75.30
51524;BME280;37610;51.790;21.590;2022-10-31T09:51:33;100623.52;;;13.63;75.18
51524;BME280;37610;51.790;21.590;2022-10-31T09:55:44;100620.69;;;13.70;75.21
51524;BME280;37610;51.790;21.590;2022-10-31T09:59:49;100618.55;;;13.76;75.07
51524;BME280;37610;51.790;21.590;2022-10-31T10:03:54;100625.04;;;13.81;74.87
51524;BME280;37610;51.790;21.590;2022-10-31T10:12:29;100624.82;;;13.93;74.87
51524;BME280;37610;51.790;21.590;2022-10-31T10:16:40;100622.75;;;14.00;74.84
51524;BME280;37610;51.790;21.590;2022-10-31T10:25:22;100610.39;;;14.14;74.91
51524;BME280;37610;51.790;21.590;2022-10-31T10:29:38;100612.77;;;14.21;74.74
51524;BME280;37610;51.790;21.590;2022-10-31T10:38:01;100615.49;;;14.35;74.31
51524;BME280;37610;51.790;21.590;2022-10-31T10:42:12;100613.17;;;14.43;74.11
51524;BME280;37610;51.790;21.590;2022-10-31T10:50:59;100612.90;;;14.59;73.78
51524;BME280;37610;51.790;21.590;2022-10-31T10:59:16;100608.25;;;14.75;73.52
51524;BME280;37610;51.790;21.590;2022-10-31T11:03:19;100602.88;;;14.91;74.43
51524;BME280;37610;51.790;21.590;2022-10-31T11:07:21;100596.83;;;15.19;75.09
